Time;durP1;ratioP1;P1;durP2;ratioP2;P2;SDS_P1;SDS_P2;PMS_P1;PMS_P2;Temp;Humidity;BMP_temperature;BMP_pressure;BME280_temperature;BME280_humidity;BME280_pressure;Samples;Min_cycle;Max_cycle;Signal;HPM_P1;HPM_P2
2021/03/17 00:00:24;;;;;;;2.63;2.28;;;-0.20;99.90;;;;;;4959917;28;20088;-84
2021/03/17 00:03:10;;;;;;;2.58;2.17;;;-0.20;99.90;;;;;;4957813;28;20193;-84
2021/03/17 00:05:55;;;;;;;3.90;2.42;;;-0.20;99.90;;;;;;4972823;28;20049;-84
2021/03/17 00:08:40;;;;;;;2.88;2.58;;;-0.20;99.90;;;;;;4962150;28;20129;-84
2021/03/17 00:11:27;;;;;;;2.65;2.35;;;-0.20;99.90;;;;;;4962544;28;20069;-84
2021/03/17 00:14:18;;;;;;;;;;;-0.20;99.90;;;;;;4945662;28;20056;-84
2021/03/17 00:17:04;;;;;;;3.58;2.47;;;-0.20;99.90;;;;;;4962555;28;19981;-84
2021/03/17 00:19:49;;;;;;;2.95;2.60;;;-0.20;99.90;;;;;;4958546;28;20720;-85
2021/03/17 00:22:34;;;;;;;4.22;3.63;;;-0.20;99.90;;;;;;4972650;28;20057;-84
2021/03/17 00:25:21;;;;;;;3.67;3.38;;;-0.20;99.90;;;;;;4959992;28;20124;-84
2021/03/17 00:28:08;;;;;;;5.10;3.67;;;-0.20;99.90;;;;;;4957784;28;20058;-83
2021/03/17 00:30:53;;;;;;;4.57;4.10;;;-0.20;99.90;;;;;;4963045;28;20049;-84
2021/03/17 00:33:39;;;;;;;5.38;4.75;;;-0.10;99.90;;;;;;4956409;28;20454;-82
2021/03/17 00:36:23;;;;;;;6.80;3.97;;;-0.20;99.90;;;;;;4959496;28;20498;-82
2021/03/17 00:39:09;;;;;;;4.63;2.30;;;-0.20;99.90;;;;;;4960049;28;20614;-83
2021/03/17 00:41:54;;;;;;;4.80;4.10;;;-0.20;99.90;;;;;;4958840;28;20257;-84
2021/03/17 00:44:41;;;;;;;5.60;4.22;;;-0.20;99.90;;;;;;4960609;28;20100;-84
2021/03/17 00:47:27;;;;;;;3.53;3.13;;;-0.20;99.90;;;;;;4960990;28;20178;-83
2021/03/17 00:49:55;;;;;;;3.72;3.28;;;-0.20;99.90;;;;;;4941601;28;20240;-83
2021/03/17 00:52:23;;;;;;;3.80;3.28;;;-0.20;99.90;;;;;;4961701;28;20151;-83
2021/03/17 00:55:08;;;;;;;3.20;2.72;;;-0.10;99.90;;;;;;4960781;28;20508;-83
2021/03/17 00:57:53;;;;;;;4.28;2.72;;;-0.10;99.90;;;;;;4957084;28;20200;-83
2021/03/17 01:00:22;;;;;;;3.70;3.20;;;-0.10;99.90;;;;;;4975012;28;20081;-83
2021/03/17 01:02:50;;;;;;;3.67;3.00;;;-0.10;99.90;;;;;;4961925;28;20129;-83
2021/03/17 01:05:17;;;;;;;5.75;3.30;;;-0.10;99.90;;;;;;4966211;28;20055;-83
2021/03/17 01:07:44;;;;;;;4.15;3.55;;;-0.10;99.90;;;;;;4960347;28;20605;-83
2021/03/17 01:10:24;;;;;;;3.33;3.03;;;-0.10;99.90;;;;;;4964028;28;20054;-83
2021/03/17 01:12:50;;;;;;;;;;;-0.10;99.90;;;;;;4958784;28;20051;-83
2021/03/17 01:15:20;;;;;;;5.22;3.72;;;-0.10;99.90;;;;;;4964050;28;19922;-83
2021/03/17 01:17:47;;;;;;;4.60;3.87;;;-0.10;99.90;;;;;;4964274;28;20411;-83
2021/03/17 01:20:16;;;;;;;4.10;3.53;;;-0.20;99.90;;;;;;4976361;28;20675;-84
2021/03/17 01:22:43;;;;;;;5.85;4.28;;;-0.20;99.90;;;;;;4960892;28;20146;-84
2021/03/17 01:25:13;;;;;;;4.72;3.92;;;-0.20;99.90;;;;;;4964077;28;20046;-84
2021/03/17 01:27:40;;;;;;;5.18;4.53;;;-0.30;99.90;;;;;;4955807;28;20080;-84
2021/03/17 01:30:07;;;;;;;5.43;4.78;;;-0.30;99.90;;;;;;4973751;28;20153;-83
2021/03/17 01:32:35;;;;;;;5.55;4.35;;;-0.40;99.90;;;;;;4963784;28;20057;-83
2021/03/17 01:35:08;;;;;;;6.88;4.90;;;-0.40;99.90;;;;;;4962873;28;20508;-84
2021/03/17 01:37:35;;;;;;;5.43;4.60;;;-0.50;99.90;;;;;;4962976;28;20153;-84
2021/03/17 01:40:02;;;;;;;6.55;5.45;;;-0.50;99.90;;;;;;4954134;28;20054;-84
2021/03/17 01:42:29;;;;;;;8.55;6.97;;;-0.50;99.90;;;;;;4978248;28;20042;-84
2021/03/17 01:45:10;;;;;;;10.43;6.80;;;-0.60;99.90;;;;;;4946199;28;20050;-84
2021/03/17 01:47:38;;;;;;;7.30;6.45;;;-0.60;99.90;;;;;;4965416;28;20483;-84
2021/03/17 01:50:09;;;;;;;9.45;8.45;;;-0.70;99.90;;;;;;4962773;28;20067;-84
2021/03/17 01:52:36;;;;;;;9.98;7.78;;;-0.70;99.90;;;;;;4965054;28;20054;-84
2021/03/17 01:55:07;;;;;;;20.25;9.50;;;-0.70;99.90;;;;;;4962122;28;20034;-84
2021/03/17 01:57:34;;;;;;;11.75;7.28;;;-0.70;99.90;;;;;;4963821;28;20054;-84
2021/03/17 02:00:04;;;;;;;14.07;6.93;;;-0.80;99.90;;;;;;4932871;28;20043;-84
2021/03/17 02:02:43;;;;;;;17.27;6.38;;;-0.80;99.90;;;;;;4963504;28;20038;-84
2021/03/17 02:05:15;;;;;;;8.10;5.50;;;-0.80;99.90;;;;;;4964360;28;20043;-84
2021/03/17 02:07:42;;;;;;;12.50;5.85;;;-0.80;99.90;;;;;;4953669;28;20067;-84
2021/03/17 02:10:15;;;;;;;7.80;4.10;;;-0.80;99.90;;;;;;4976973;28;20058;-84
2021/03/17 02:13:00;;;;;;;20.67;5.85;;;-0.90;99.90;;;;;;4964665;28;20046;-84
2021/03/17 02:15:52;;;;;;;11.98;6.53;;;-1.00;99.90;;;;;;4964822;28;20054;-84
2021/03/17 02:18:57;;;;;;;11.80;6.28;;;-1.00;99.90;;;;;;4963956;28;20085;-84
2021/03/17 02:21:50;;;;;;;9.90;4.60;;;-1.00;99.90;;;;;;4963466;28;20042;-84
2021/03/17 02:24:19;;;;;;;8.52;4.78;;;-1.10;99.90;;;;;;4960200;28;20072;-84
2021/03/17 02:26:52;;;;;;;7.95;4.40;;;-1.10;99.90;;;;;;4963219;28;20133;-84
2021/03/17 02:29:40;;;;;;;9.70;5.10;;;-1.10;99.90;;;;;;4964532;28;20058;-84
2021/03/17 02:32:22;;;;;;;6.22;4.60;;;-1.20;99.90;;;;;;4970770;28;20047;-83
2021/03/17 02:34:53;;;;;;;7.80;4.82;;;-1.20;99.90;;;;;;4962425;28;20522;-84
2021/03/17 02:37:23;;;;;;;9.77;5.75;;;-1.30;99.90;;;;;;4976754;28;20031;-85
2021/03/17 02:40:07;;;;;;;9.07;5.22;;;-1.30;99.90;;;;;;4966210;28;20133;-84
2021/03/17 02:42:42;;;;;;;6.57;3.97;;;-1.40;99.90;;;;;;4964120;28;20058;-84
2021/03/17 02:45:13;;;;;;;7.45;3.83;;;-1.40;99.90;;;;;;4964679;28;20053;-85
2021/03/17 02:48:05;;;;;;;5.95;3.38;;;-1.50;99.90;;;;;;4962624;28;20057;-85
2021/03/17 02:50:33;;;;;;;5.63;3.65;;;-1.50;99.90;;;;;;4960411;28;20046;-84
2021/03/17 02:53:02;;;;;;;5.45;3.42;;;-1.50;99.90;;;;;;4964934;28;20498;-84
2021/03/17 02:55:34;;;;;;;8.52;3.70;;;-1.60;99.90;;;;;;4962146;28;20047;-84
2021/03/17 02:58:01;;;;;;;6.35;4.22;;;-1.70;99.90;;;;;;4961301;28;20226;-84
2021/03/17 03:00:29;;;;;;;6.47;3.53;;;-1.70;99.90;;;;;;4963320;28;20477;-84
2021/03/17 03:02:59;;;;;;;6.38;3.72;;;-1.70;99.90;;;;;;4960461;28;20047;-84
2021/03/17 03:05:30;;;;;;;5.45;3.78;;;-1.70;99.90;;;;;;4978676;28;20074;-84
2021/03/17 03:07:59;;;;;;;7.05;3.42;;;-1.80;99.90;;;;;;4954962;28;20054;-84
2021/03/17 03:10:29;;;;;;;7.90;4.20;;;-1.80;99.90;;;;;;4977645;28;20130;-84
2021/03/17 03:12:57;;;;;;;5.53;3.42;;;-1.80;99.90;;;;;;4963205;28;20051;-84
2021/03/17 03:15:27;;;;;;;6.55;3.60;;;-1.80;99.90;;;;;;4961686;28;20043;-84
2021/03/17 03:17:57;;;;;;;5.65;3.40;;;-1.90;99.90;;;;;;4928230;28;20070;-85
2021/03/17 03:20:26;;;;;;;5.28;2.95;;;-1.90;99.90;;;;;;4959479;28;20054;-85
2021/03/17 03:22:54;;;;;;;6.90;4.60;;;-1.80;99.90;;;;;;4934485;28;20106;-84
2021/03/17 03:25:23;;;;;;;6.22;3.80;;;-1.80;99.90;;;;;;4951320;28;20488;-85
2021/03/17 03:27:51;;;;;;;5.75;3.85;;;-1.80;99.90;;;;;;4926039;28;20051;-85
2021/03/17 03:30:25;;;;;;;11.18;5.13;;;-1.80;99.90;;;;;;4960046;28;20105;-85
2021/03/17 03:32:53;;;;;;;12.73;6.43;;;-1.70;99.90;;;;;;4960183;28;20055;-85
2021/03/17 03:35:22;;;;;;;11.48;6.47;;;-1.60;99.90;;;;;;4960203;28;21404;-84
2021/03/17 03:37:51;;;;;;;10.68;6.90;;;-1.60;99.90;;;;;;4958288;28;20535;-85
2021/03/17 03:40:20;;;;;;;10.45;6.05;;;-1.50;99.90;;;;;;4940963;28;20333;-84
2021/03/17 03:42:48;;;;;;;11.18;7.47;;;-1.40;99.90;;;;;;4952641;28;20094;-84
2021/03/17 03:45:17;;;;;;;41.20;8.27;;;-1.40;99.90;;;;;;4962858;28;20051;-86
2021/03/17 03:47:44;;;;;;;23.73;7.78;;;-1.30;99.90;;;;;;4943299;28;20129;-86
2021/03/17 03:50:17;;;;;;;33.88;6.80;;;-1.30;99.90;;;;;;4961073;28;20063;-87
2021/03/17 03:53:07;;;;;;;18.58;8.68;;;-1.20;99.90;;;;;;4959044;28;20134;-87
2021/03/17 03:55:49;;;;;;;19.87;9.67;;;-1.20;99.90;;;;;;4956274;28;20051;-87
2021/03/17 03:58:32;;;;;;;22.40;9.05;;;-1.20;99.90;;;;;;4944059;28;20043;-87
2021/03/17 04:01:07;;;;;;;42.95;9.88;;;-1.20;99.90;;;;;;4930981;28;20567;-87
2021/03/17 04:03:41;;;;;;;16.48;7.10;;;-1.20;99.90;;;;;;4968368;28;20055;-87
2021/03/17 04:06:11;;;;;;;75.93;11.63;;;-1.20;99.90;;;;;;4961323;28;21119;-86
2021/03/17 04:08:46;;;;;;;17.60;10.10;;;-1.10;99.90;;;;;;4938672;28;20043;-86
2021/03/17 04:11:15;;;;;;;17.05;9.90;;;-1.10;99.90;;;;;;4961325;28;20299;-87
2021/03/17 04:13:44;;;;;;;20.35;11.75;;;-1.10;99.90;;;;;;4968509;28;20507;-86
2021/03/17 04:16:14;;;;;;;20.83;10.13;;;-1.10;99.90;;;;;;4960818;28;20050;-87
2021/03/17 04:18:45;;;;;;;23.13;10.23;;;-1.10;99.90;;;;;;4975613;28;20050;-87
2021/03/17 04:21:26;;;;;;;44.67;12.25;;;-1.10;99.90;;;;;;4933422;28;20055;-87
2021/03/17 04:23:56;;;;;;;38.28;14.13;;;-1.10;99.90;;;;;;4956511;28;20050;-87
2021/03/17 04:26:23;;;;;;;30.00;11.02;;;-1.10;99.90;;;;;;4960528;28;20061;-84
2021/03/17 04:28:53;;;;;;;42.80;11.00;;;-1.00;99.90;;;;;;4956436;28;20158;-84
2021/03/17 04:31:21;;;;;;;29.43;8.97;;;-1.00;99.90;;;;;;4956945;28;20047;-84
2021/03/17 04:33:49;;;;;;;20.70;9.60;;;-1.00;99.90;;;;;;4957620;28;20285;-84
2021/03/17 04:36:17;;;;;;;16.65;9.55;;;-1.00;99.90;;;;;;4959346;28;20058;-84
2021/03/17 04:38:45;;;;;;;14.20;7.20;;;-1.00;99.90;;;;;;4966232;28;20136;-84
2021/03/17 04:41:13;;;;;;;16.65;8.75;;;-1.00;99.90;;;;;;4940401;28;20054;-84
2021/03/17 04:43:42;;;;;;;18.52;7.38;;;-1.00;99.90;;;;;;4956062;28;20046;-84
2021/03/17 04:46:10;;;;;;;15.10;7.85;;;-1.00;99.90;;;;;;4960483;28;20050;-84
2021/03/17 04:48:43;;;;;;;32.80;8.90;;;-1.00;99.90;;;;;;4946623;28;20047;-84
2021/03/17 04:51:17;;;;;;;15.02;8.02;;;-1.00;99.90;;;;;;4963905;28;20062;-84
2021/03/17 04:53:44;;;;;;;15.77;8.48;;;-1.00;99.90;;;;;;4956374;28;20120;-84
2021/03/17 04:56:13;;;;;;;27.05;9.95;;;-1.00;99.90;;;;;;4957905;28;20138;-84
2021/03/17 04:58:41;;;;;;;15.10;7.07;;;-1.00;99.90;;;;;;4961568;28;20511;-84
2021/03/17 05:01:11;;;;;;;17.67;8.35;;;-1.00;99.90;;;;;;4958334;28;20072;-84
2021/03/17 05:03:40;;;;;;;45.08;7.82;;;-1.00;99.90;;;;;;4958612;28;20781;-84
2021/03/17 05:06:07;;;;;;;16.10;7.03;;;-0.90;99.90;;;;;;4957317;28;20054;-84
2021/03/17 05:08:41;;;;;;;67.63;10.23;;;-0.90;99.90;;;;;;4965378;28;21351;-84
2021/03/17 05:11:09;;;;;;;27.38;8.00;;;-1.00;99.90;;;;;;4949457;28;20047;-84
2021/03/17 05:13:37;;;;;;;14.95;8.15;;;-1.00;99.90;;;;;;4958967;28;20046;-84
2021/03/17 05:16:05;;;;;;;18.73;8.52;;;-0.90;99.90;;;;;;4958038;28;20053;-85
2021/03/17 05:18:33;;;;;;;20.60;8.18;;;-0.90;99.90;;;;;;4957816;28;20381;-84
2021/03/17 05:21:02;;;;;;;20.40;8.95;;;-0.80;99.90;;;;;;4958934;28;20413;-84
2021/03/17 05:23:29;;;;;;;28.63;11.50;;;-0.80;99.90;;;;;;4961059;28;20046;-84
2021/03/17 05:25:57;;;;;;;37.13;9.32;;;-0.80;99.90;;;;;;4960982;28;20361;-84
2021/03/17 05:28:26;;;;;;;23.42;7.72;;;-0.80;99.90;;;;;;4953624;28;20546;-84
2021/03/17 05:30:53;;;;;;;36.80;8.93;;;-0.80;99.90;;;;;;4958381;28;20503;-85
2021/03/17 05:33:28;;;;;;;38.72;8.57;;;-0.80;99.90;;;;;;4958178;28;20043;-86
2021/03/17 05:35:54;;;;;;;26.05;7.20;;;-0.70;99.90;;;;;;4951455;28;21725;-85
2021/03/17 05:38:21;;;;;;;117.00;12.18;;;-0.70;99.90;;;;;;4972151;28;20042;-86
2021/03/17 05:40:48;;;;;;;11.30;5.28;;;-0.60;99.90;;;;;;4952431;28;20039;-86
2021/03/17 05:43:15;;;;;;;38.13;9.73;;;-0.60;99.90;;;;;;4954556;28;20579;-86
2021/03/17 05:45:42;;;;;;;47.38;8.05;;;-0.50;99.90;;;;;;4954815;28;20389;-85
2021/03/17 05:48:10;;;;;;;26.10;6.93;;;-0.50;99.90;;;;;;4958403;28;21174;-85
2021/03/17 05:50:38;;;;;;;39.13;9.25;;;-0.50;99.90;;;;;;4947238;28;20063;-86
2021/03/17 05:53:06;;;;;;;12.25;5.95;;;-0.50;99.90;;;;;;4961352;28;20392;-85
2021/03/17 05:55:37;;;;;;;23.95;6.38;;;-0.40;99.90;;;;;;4974813;28;20128;-85
2021/03/17 05:58:03;;;;;;;35.50;5.43;;;-0.40;99.90;;;;;;4959929;28;20516;-85
2021/03/17 06:00:30;;;;;;;7.60;3.40;;;-0.40;99.90;;;;;;4961000;28;20039;-86
2021/03/17 06:02:59;;;;;;;8.65;3.47;;;-0.40;99.90;;;;;;4957664;28;20051;-85
2021/03/17 06:05:27;;;;;;;4.32;3.15;;;-0.30;99.90;;;;;;4962214;28;20049;-85
2021/03/17 06:08:00;;;;;;;41.72;6.80;;;-0.30;99.90;;;;;;4955608;28;20058;-86
2021/03/17 06:10:27;;;;;;;17.67;4.75;;;-0.30;99.90;;;;;;4961755;28;20051;-86
2021/03/17 06:13:11;;;;;;;2.95;2.28;;;-0.30;99.90;;;;;;4960617;28;20043;-86
2021/03/17 06:15:39;;;;;;;7.82;2.55;;;-0.20;99.90;;;;;;4961839;28;20174;-85
2021/03/17 06:18:49;;;;;;;34.67;4.18;;;-0.30;99.90;;;;;;4956840;28;20071;-85
2021/03/17 06:21:19;;;;;;;5.00;1.63;;;-0.30;99.90;;;;;;4962463;28;20058;-85
2021/03/17 06:23:47;;;;;;;9.35;2.78;;;-0.20;99.90;;;;;;4960893;28;20646;-85
2021/03/17 06:26:15;;;;;;;21.48;3.45;;;-0.20;99.90;;;;;;4959287;28;20065;-85
2021/03/17 06:28:42;;;;;;;48.92;5.05;;;-0.10;99.90;;;;;;4960740;28;20472;-85
2021/03/17 06:31:09;;;;;;;5.95;1.38;;;-0.10;99.90;;;;;;4959500;28;20061;-84
2021/03/17 06:33:38;;;;;;;21.42;2.75;;;-0.10;99.90;;;;;;4960763;28;20145;-84
2021/03/17 06:36:14;;;;;;;14.50;2.38;;;-0.10;99.90;;;;;;4958448;28;20051;-84
2021/03/17 06:38:41;;;;;;;5.63;1.85;;;-0.10;99.90;;;;;;4975394;28;20058;-84
2021/03/17 06:41:08;;;;;;;1.27;0.80;;;0.00;99.90;;;;;;4969924;28;20046;-84
2021/03/17 06:43:37;;;;;;;34.85;3.70;;;0.00;99.90;;;;;;4960408;28;20055;-84
2021/03/17 06:46:06;;;;;;;53.85;4.63;;;0.10;99.90;;;;;;4959095;28;20070;-84
2021/03/17 06:48:52;;;;;;;3.92;1.90;;;0.20;99.90;;;;;;4959961;28;20066;-84
2021/03/17 06:51:20;;;;;;;7.07;1.55;;;0.20;99.90;;;;;;4961343;28;20061;-84
2021/03/17 06:53:59;;;;;;;11.25;2.53;;;0.30;99.90;;;;;;4956497;28;20126;-84
2021/03/17 06:56:36;;;;;;;9.52;2.25;;;0.30;99.90;;;;;;4958116;28;20047;-84
2021/03/17 06:59:05;;;;;;;11.93;3.40;;;0.30;99.90;;;;;;4971532;28;20058;-84
2021/03/17 07:01:35;;;;;;;21.97;3.10;;;0.30;99.90;;;;;;4959989;28;20050;-84
2021/03/17 07:04:30;;;;;;;11.98;2.22;;;0.40;99.90;;;;;;4957908;28;20579;-85
2021/03/17 07:07:01;;;;;;;18.05;4.40;;;0.40;99.90;;;;;;4927758;28;20059;-84
2021/03/17 07:09:30;;;;;;;9.52;2.53;;;0.50;99.90;;;;;;4961804;28;20423;-84
2021/03/17 07:12:10;;;;;;;5.65;2.15;;;0.50;99.90;;;;;;4958491;28;20472;-84
2021/03/17 07:14:39;;;;;;;11.65;3.67;;;0.60;99.90;;;;;;4945075;28;20055;-84
2021/03/17 07:17:25;;;;;;;5.43;2.67;;;0.60;99.90;;;;;;4948526;28;20481;-84
2021/03/17 07:19:52;;;;;;;9.15;2.67;;;0.70;99.90;;;;;;4973222;28;20054;-85
2021/03/17 07:22:20;;;;;;;10.73;2.78;;;0.80;99.90;;;;;;4959537;28;20053;-85
2021/03/17 07:24:52;;;;;;;3.15;2.50;;;0.80;99.90;;;;;;4959819;28;20027;-85
2021/03/17 07:27:21;;;;;;;3.70;2.53;;;0.90;99.90;;;;;;4961624;28;20492;-85
2021/03/17 07:29:59;;;;;;;5.68;4.07;;;0.90;99.90;;;;;;4961570;28;20640;-85
2021/03/17 07:32:55;;;;;;;2.88;2.35;;;1.00;99.90;;;;;;4972535;28;20197;-85
2021/03/17 07:35:25;;;;;;;4.70;2.55;;;1.10;99.90;;;;;;4953497;28;20043;-84
2021/03/17 07:38:13;;;;;;;4.03;2.80;;;1.20;99.90;;;;;;4955530;28;20534;-84
2021/03/17 07:40:43;;;;;;;4.30;2.60;;;1.30;99.90;;;;;;4976660;28;20042;-84
2021/03/17 07:43:11;;;;;;;8.25;3.95;;;1.40;99.90;;;;;;4958767;28;20981;-84
2021/03/17 07:45:38;;;;;;;3.20;2.72;;;1.50;99.90;;;;;;4959674;28;20043;-84
2021/03/17 07:48:12;;;;;;;3.65;2.92;;;1.50;99.90;;;;;;4959261;28;20050;-85
2021/03/17 07:50:41;;;;;;;7.05;3.08;;;1.60;99.90;;;;;;4948585;28;20793;-85
2021/03/17 07:53:24;;;;;;;14.88;4.15;;;1.60;99.90;;;;;;4961405;28;20046;-85
2021/03/17 07:55:55;;;;;;;3.60;2.58;;;1.70;99.90;;;;;;4968938;28;20061;-85
2021/03/17 07:58:22;;;;;;;9.93;2.72;;;1.70;99.90;;;;;;4973704;28;20047;-85
2021/03/17 08:00:49;;;;;;;6.75;3.58;;;1.80;99.90;;;;;;4958353;28;20047;-85
2021/03/17 08:03:16;;;;;;;2.67;2.45;;;1.90;99.90;;;;;;4956483;28;20049;-85
2021/03/17 08:05:46;;;;;;;4.70;2.85;;;2.00;99.90;;;;;;4956701;28;20105;-84
2021/03/17 08:08:13;;;;;;;8.95;3.30;;;2.10;99.90;;;;;;4959278;28;20074;-84
2021/03/17 08:10:45;;;;;;;7.03;2.85;;;2.20;99.90;;;;;;4960848;28;20559;-84
2021/03/17 08:13:13;;;;;;;16.30;3.60;;;2.30;99.90;;;;;;4962404;28;20161;-85
2021/03/17 08:15:45;;;;;;;9.98;3.17;;;2.30;99.90;;;;;;4956145;28;20464;-85
2021/03/17 08:18:31;;;;;;;4.47;2.78;;;2.40;99.90;;;;;;4960263;28;20515;-85
2021/03/17 08:20:59;;;;;;;4.85;2.08;;;2.50;99.90;;;;;;4956104;28;20455;-85
2021/03/17 08:23:48;;;;;;;5.80;3.00;;;2.50;99.90;;;;;;4953358;28;20129;-84
2021/03/17 08:26:34;;;;;;;4.82;2.60;;;2.70;99.90;;;;;;4959120;28;20069;-84
2021/03/17 08:29:00;;;;;;;15.10;3.35;;;2.80;99.90;;;;;;4959191;28;20046;-85
2021/03/17 08:31:36;;;;;;;6.70;2.95;;;2.90;99.90;;;;;;4961583;28;20042;-85
2021/03/17 08:34:18;;;;;;;3.53;2.20;;;2.90;99.90;;;;;;4969235;28;20046;-85
2021/03/17 08:36:49;;;;;;;2.60;1.80;;;3.00;99.90;;;;;;4959668;28;20051;-85
2021/03/17 08:39:34;;;;;;;10.85;2.53;;;3.10;99.90;;;;;;4960094;28;20058;-85
2021/03/17 08:42:31;;;;;;;2.58;2.30;;;3.10;99.90;;;;;;4959044;28;20058;-85
2021/03/17 08:45:14;;;;;;;5.50;3.00;;;3.10;99.90;;;;;;4960080;28;20098;-85
2021/03/17 08:47:45;;;;;;;20.50;2.92;;;3.20;99.90;;;;;;4960041;28;20054;-84
2021/03/17 08:50:21;;;;;;;8.05;2.92;;;3.30;99.90;;;;;;4957098;28;20050;-85
2021/03/17 08:52:50;;;;;;;23.13;4.35;;;3.40;99.90;;;;;;4974083;28;20675;-85
2021/03/17 08:55:37;;;;;;;7.18;2.78;;;3.50;99.90;;;;;;4959600;28;20078;-85
2021/03/17 08:58:07;;;;;;;7.25;2.08;;;3.60;99.90;;;;;;4974784;28;20050;-85
2021/03/17 09:00:53;;;;;;;12.25;2.85;;;3.60;99.90;;;;;;4950968;28;20412;-85
2021/03/17 09:03:34;;;;;;;8.45;2.70;;;3.70;99.90;;;;;;4971948;28;20404;-85
2021/03/17 09:06:09;;;;;;;20.27;3.50;;;3.80;99.90;;;;;;4959752;28;20143;-85
2021/03/17 09:09:05;;;;;;;8.52;1.65;;;3.80;99.90;;;;;;4955429;28;20063;-85
2021/03/17 09:11:31;;;;;;;12.65;3.10;;;3.80;99.90;;;;;;4958982;28;20137;-85
2021/03/17 09:14:03;;;;;;;25.90;6.28;;;3.80;99.90;;;;;;4959123;28;20049;-85
2021/03/17 09:16:32;;;;;;;15.23;2.20;;;3.80;99.90;;;;;;4961363;28;20050;-84
2021/03/17 09:19:13;;;;;;;10.02;3.20;;;3.80;99.90;;;;;;4955815;28;20061;-85
2021/03/17 09:21:42;;;;;;;15.45;1.80;;;3.90;99.90;;;;;;4970976;28;20097;-84
2021/03/17 09:24:33;;;;;;;8.27;1.55;;;4.00;99.90;;;;;;4960200;28;20071;-85
2021/03/17 09:27:05;;;;;;;2.13;1.15;;;3.90;99.90;;;;;;4964435;28;20070;-84
2021/03/17 09:29:33;;;;;;;2.08;1.17;;;4.00;99.90;;;;;;4964386;28;20114;-85
2021/03/17 09:32:02;;;;;;;6.10;1.83;;;4.00;99.90;;;;;;4961937;28;20146;-84
2021/03/17 09:34:33;;;;;;;6.05;1.90;;;4.00;99.90;;;;;;4964932;28;20061;-83
2021/03/17 09:37:11;;;;;;;5.85;2.30;;;4.00;99.90;;;;;;4958970;28;20078;-84
2021/03/17 09:39:48;;;;;;;8.20;1.60;;;4.10;99.90;;;;;;4978415;28;20061;-84
2021/03/17 09:42:15;;;;;;;8.43;1.83;;;4.00;99.90;;;;;;4961319;28;20053;-84
2021/03/17 09:44:42;;;;;;;11.45;1.40;;;4.00;99.90;;;;;;4963678;28;20073;-84
2021/03/17 09:47:09;;;;;;;4.57;1.08;;;4.10;99.90;;;;;;4965002;28;20203;-84
2021/03/17 09:49:36;;;;;;;9.05;1.23;;;4.10;99.90;;;;;;4963715;28;20042;-84
2021/03/17 09:52:04;;;;;;;15.30;3.10;;;4.20;99.90;;;;;;4976947;28;20047;-84
2021/03/17 09:54:32;;;;;;;2.55;1.05;;;4.00;99.90;;;;;;4963916;28;20385;-84
2021/03/17 09:57:02;;;;;;;3.67;2.63;;;3.90;99.90;;;;;;4962788;28;20531;-85
2021/03/17 09:59:31;;;;;;;9.40;1.60;;;4.00;99.90;;;;;;4964522;28;20050;-84
2021/03/17 10:02:10;;;;;;;12.93;2.55;;;3.90;99.90;;;;;;4977621;28;20504;-84
2021/03/17 10:04:45;;;;;;;6.47;1.55;;;4.00;99.90;;;;;;4961295;28;20055;-84
2021/03/17 10:07:24;;;;;;;6.95;1.65;;;4.00;99.90;;;;;;4947680;28;20101;-84
2021/03/17 10:09:53;;;;;;;5.00;1.52;;;4.10;99.90;;;;;;4952434;28;20149;-84
2021/03/17 10:12:28;;;;;;;6.05;1.90;;;4.00;99.90;;;;;;4961143;28;20189;-84
2021/03/17 10:14:59;;;;;;;6.72;1.98;;;4.00;99.90;;;;;;4961840;28;20629;-84
2021/03/17 10:17:27;;;;;;;;;;;3.90;99.90;;;;;;4962375;28;20539;-85
2021/03/17 10:20:01;;;;;;;3.13;2.03;;;3.90;99.90;;;;;;4969230;28;19962;-84
2021/03/17 10:22:30;;;;;;;2.90;1.20;;;4.00;99.90;;;;;;4961499;28;20126;-84
2021/03/17 10:25:00;;;;;;;4.63;2.10;;;3.90;99.90;;;;;;4960731;28;20078;-84
2021/03/17 10:27:34;;;;;;;6.25;2.03;;;3.90;99.90;;;;;;4961386;28;20050;-83
2021/03/17 10:30:08;;;;;;;8.88;2.38;;;4.00;99.90;;;;;;4973940;28;20051;-84
2021/03/17 10:32:40;;;;;;;12.25;1.92;;;4.00;99.90;;;;;;4959285;28;20050;-83
2021/03/17 10:35:16;;;;;;;3.95;1.02;;;4.00;99.90;;;;;;4958691;28;20058;-84
2021/03/17 10:37:50;;;;;;;6.03;1.33;;;4.20;99.90;;;;;;4953736;28;20768;-84
2021/03/17 10:40:21;;;;;;;7.97;2.38;;;4.30;99.90;;;;;;4958770;28;20138;-84
2021/03/17 10:42:49;;;;;;;;;;;4.20;99.90;;;;;;4955868;28;20043;-84
2021/03/17 10:45:44;;;;;;;6.95;1.58;;;4.30;99.90;;;;;;4912482;28;20579;-84
2021/03/17 10:48:17;;;;;;;9.80;1.88;;;4.30;99.90;;;;;;4959747;28;20055;-83
2021/03/17 10:50:46;;;;;;;1.50;1.25;;;4.30;99.90;;;;;;4940113;28;20564;-84
2021/03/17 10:53:23;;;;;;;7.15;2.55;;;4.30;99.90;;;;;;4940885;28;20062;-84
2021/03/17 10:55:51;;;;;;;8.35;1.88;;;4.20;99.90;;;;;;4957297;28;20121;-84
2021/03/17 10:58:23;;;;;;;21.08;3.05;;;4.20;99.90;;;;;;4944166;28;20050;-84
2021/03/17 11:00:52;;;;;;;3.88;1.50;;;4.40;99.90;;;;;;4977059;28;20377;-84
2021/03/17 11:03:25;;;;;;;3.30;1.42;;;4.40;99.90;;;;;;4956437;28;20488;-84
2021/03/17 11:06:09;;;;;;;3.35;1.55;;;4.40;99.90;;;;;;4958993;28;20373;-85
2021/03/17 11:08:36;;;;;;;8.20;1.55;;;4.20;99.90;;;;;;4961415;28;20396;-84
2021/03/17 11:11:13;;;;;;;5.95;1.33;;;4.10;99.90;;;;;;4959777;28;20062;-84
2021/03/17 11:13:48;;;;;;;3.80;1.95;;;4.10;99.90;;;;;;4959432;28;20050;-84
2021/03/17 11:16:25;;;;;;;4.35;1.23;;;4.20;99.90;;;;;;4970864;28;20061;-84
2021/03/17 11:18:53;;;;;;;19.90;1.63;;;4.20;99.90;;;;;;4968673;28;20055;-84
2021/03/17 11:21:32;;;;;;;2.67;1.17;;;4.30;99.90;;;;;;4973712;28;20069;-84
2021/03/17 11:24:05;;;;;;;5.10;0.90;;;4.40;99.90;;;;;;4941134;28;20053;-84
2021/03/17 11:26:38;;;;;;;4.82;1.25;;;4.20;99.90;;;;;;4958997;28;20500;-84
2021/03/17 11:29:31;;;;;;;1.95;0.95;;;4.30;99.90;;;;;;4950401;28;20134;-84
2021/03/17 11:32:09;;;;;;;5.25;2.40;;;4.30;99.90;;;;;;4957103;28;20049;-84
2021/03/17 11:34:36;;;;;;;3.33;1.15;;;4.40;99.90;;;;;;4957985;28;20043;-85
2021/03/17 11:37:03;;;;;;;6.00;1.58;;;4.30;99.90;;;;;;4957570;28;20717;-85
2021/03/17 11:39:30;;;;;;;3.45;2.08;;;4.20;99.90;;;;;;4960966;28;20061;-84
2021/03/17 11:41:57;;;;;;;6.00;1.90;;;4.30;99.90;;;;;;4955861;28;20074;-84
2021/03/17 11:44:24;;;;;;;4.18;0.90;;;4.20;99.90;;;;;;4953916;28;20062;-85
2021/03/17 11:46:52;;;;;;;5.03;1.80;;;4.30;99.90;;;;;;4959988;28;20058;-85
2021/03/17 11:49:19;;;;;;;6.13;2.42;;;4.30;99.90;;;;;;4958615;28;20062;-85
2021/03/17 11:51:47;;;;;;;3.60;1.40;;;4.30;99.90;;;;;;4970298;28;20058;-85
2021/03/17 11:54:14;;;;;;;8.60;3.63;;;4.20;99.90;;;;;;4957615;28;20057;-84
2021/03/17 11:56:41;;;;;;;7.93;1.88;;;4.20;99.90;;;;;;4956897;28;20061;-84
2021/03/17 11:59:08;;;;;;;7.47;1.60;;;4.30;99.90;;;;;;4958366;28;20076;-84
2021/03/17 12:01:35;;;;;;;4.22;1.67;;;4.30;99.90;;;;;;4960652;28;21081;-85
2021/03/17 12:04:02;;;;;;;7.88;2.30;;;4.40;99.90;;;;;;4954995;28;20424;-86
2021/03/17 12:06:29;;;;;;;3.97;1.50;;;4.40;99.90;;;;;;4960886;28;20085;-85
2021/03/17 12:08:56;;;;;;;5.45;1.70;;;4.30;99.90;;;;;;4958658;28;20201;-85
2021/03/17 12:11:23;;;;;;;9.38;1.58;;;4.30;99.90;;;;;;4959905;28;20059;-84
2021/03/17 12:13:51;;;;;;;19.17;3.90;;;4.20;99.90;;;;;;4955956;28;20070;-84
2021/03/17 12:16:19;;;;;;;10.23;2.25;;;4.20;99.90;;;;;;4958863;28;20120;-85
2021/03/17 12:18:47;;;;;;;8.93;2.38;;;4.20;99.90;;;;;;4957721;28;20055;-85
2021/03/17 12:21:15;;;;;;;4.70;1.50;;;4.20;99.90;;;;;;4961209;28;20054;-84
2021/03/17 12:23:42;;;;;;;8.05;1.63;;;4.30;99.90;;;;;;4951876;28;20059;-85
2021/03/17 12:26:08;;;;;;;6.85;1.67;;;4.30;99.90;;;;;;4953797;28;20084;-84
2021/03/17 12:28:38;;;;;;;17.73;2.75;;;4.30;99.90;;;;;;4972313;28;21050;-85
2021/03/17 12:31:05;;;;;;;10.40;2.67;;;4.40;99.90;;;;;;4959624;28;20059;-85
2021/03/17 12:33:32;;;;;;;6.88;1.65;;;4.30;99.90;;;;;;4961489;28;20046;-85
2021/03/17 12:35:59;;;;;;;8.57;2.50;;;4.30;99.90;;;;;;4969586;28;20130;-85
2021/03/17 12:38:26;;;;;;;11.00;1.65;;;4.20;99.90;;;;;;4973070;28;20047;-85
2021/03/17 12:40:53;;;;;;;10.48;2.42;;;4.20;99.90;;;;;;4957081;28;20074;-85
2021/03/17 12:43:20;;;;;;;4.97;1.83;;;4.10;99.90;;;;;;4957734;28;20408;-85
2021/03/17 12:45:47;;;;;;;4.75;1.80;;;4.10;99.90;;;;;;4959104;28;20050;-85
2021/03/17 12:48:18;;;;;;;8.88;2.28;;;4.10;99.90;;;;;;4936534;28;20674;-86
2021/03/17 12:50:45;;;;;;;9.57;2.75;;;4.20;99.90;;;;;;4953279;28;20064;-84
2021/03/17 12:53:17;;;;;;;12.32;2.47;;;4.10;99.90;;;;;;4950157;28;20055;-85
2021/03/17 12:55:43;;;;;;;8.68;2.25;;;4.10;99.90;;;;;;4961441;28;20038;-85
2021/03/17 12:58:10;;;;;;;13.57;2.20;;;4.20;99.90;;;;;;4959844;28;20764;-84
2021/03/17 13:00:38;;;;;;;6.03;1.63;;;4.10;99.90;;;;;;4963544;28;20053;-84
2021/03/17 13:03:05;;;;;;;6.50;1.67;;;4.00;99.90;;;;;;4976200;28;20074;-84
2021/03/17 13:05:32;;;;;;;10.45;1.83;;;3.90;99.90;;;;;;4962683;28;20047;-84
2021/03/17 13:07:58;;;;;;;1.85;1.05;;;3.70;99.90;;;;;;4962646;28;20043;-85
2021/03/17 13:10:25;;;;;;;4.43;1.55;;;3.50;99.90;;;;;;4962270;28;20142;-85
2021/03/17 13:12:52;;;;;;;3.08;1.52;;;3.40;99.90;;;;;;4964187;28;20061;-84
2021/03/17 13:15:20;;;;;;;10.05;2.40;;;3.30;99.90;;;;;;4962751;28;20051;-84